Time;durP1;ratioP1;P1;durP2;ratioP2;P2;SDS_P1;SDS_P2;PMS_P1;PMS_P2;Temp;Humidity;BMP_temperature;BMP_pressure;BME280_temperature;BME280_humidity;BME280_pressure;Samples;Min_cycle;Max_cycle;Signal;HPM_P1;HPM_P2
2021/06/30 05:59:29;;;;;;;19.30;5.47;;;;;;;;;;5272958;23;20567;-56
2021/06/30 06:01:55;;;;;;;14.00;5.05;;;;;;;;;;4953744;29;20035;-57
2021/06/30 06:04:21;;;;;;;23.40;11.02;;;;;;;;;;4953674;29;20027;-56
2021/06/30 06:06:47;;;;;;;20.50;7.38;;;;;;;;;;4953911;29;20039;-60
2021/06/30 06:09:13;;;;;;;17.88;5.70;;;;;;;;;;4954414;28;20519;-61
2021/06/30 06:11:39;;;;;;;18.17;6.00;;;;;;;;;;4952915;29;20796;-60
2021/06/30 06:14:05;;;;;;;18.20;5.45;;;;;;;;;;4963242;28;20023;-59
2021/06/30 06:16:31;;;;;;;21.52;5.80;;;;;;;;;;4953132;29;20066;-59
2021/06/30 06:18:57;;;;;;;17.42;6.50;;;;;;;;;;4953029;29;20034;-59
2021/06/30 06:21:23;;;;;;;21.42;5.82;;;;;;;;;;4952736;29;20101;-60
2021/06/30 06:23:49;;;;;;;15.57;5.60;;;;;;;;;;4952518;29;20031;-59
2021/06/30 06:26:16;;;;;;;16.50;5.53;;;;;;;;;;4952133;29;20113;-61
2021/06/30 06:28:43;;;;;;;16.10;5.35;;;;;;;;;;4951478;29;20039;-61
2021/06/30 06:31:14;;;;;;;19.42;5.53;;;;;;;;;;4952994;29;20023;-60
2021/06/30 06:33:40;;;;;;;14.98;5.55;;;;;;;;;;4951690;28;20500;-61
2021/06/30 06:36:07;;;;;;;16.67;5.55;;;;;;;;;;4952249;29;20039;-64
2021/06/30 06:38:33;;;;;;;17.40;5.57;;;;;;;;;;4952985;28;20035;-61
2021/06/30 06:40:59;;;;;;;20.40;5.88;;;;;;;;;;4953006;29;20099;-61
2021/06/30 06:43:26;;;;;;;18.85;4.95;;;;;;;;;;4952977;29;20035;-62
2021/06/30 06:45:52;;;;;;;14.18;5.05;;;;;;;;;;4951978;28;20078;-62
2021/06/30 06:48:18;;;;;;;19.25;4.53;;;;;;;;;;4955430;28;20089;-64
2021/06/30 06:50:45;;;;;;;16.35;4.68;;;;;;;;;;4930402;29;20055;-63
2021/06/30 06:53:11;;;;;;;19.67;5.07;;;;;;;;;;4932631;29;20042;-60
2021/06/30 06:55:39;;;;;;;14.43;4.70;;;;;;;;;;4932709;29;20527;-66
2021/06/30 06:58:05;;;;;;;16.75;4.47;;;;;;;;;;4929634;29;20031;-62
2021/06/30 07:00:31;;;;;;;21.40;4.93;;;;;;;;;;4917465;29;20082;-65
2021/06/30 07:02:57;;;;;;;13.85;5.30;;;;;;;;;;4913774;29;20033;-64
2021/06/30 07:05:23;;;;;;;17.58;4.60;;;;;;;;;;4913478;29;20084;-61
2021/06/30 07:07:49;;;;;;;12.00;4.50;;;;;;;;;;4913385;29;20503;-61
2021/06/30 07:10:15;;;;;;;14.43;4.22;;;;;;;;;;4913243;29;20481;-66
2021/06/30 07:12:41;;;;;;;15.20;4.32;;;;;;;;;;4914339;29;20028;-64
2021/06/30 07:15:08;;;;;;;13.93;3.97;;;;;;;;;;4914476;29;20551;-62
2021/06/30 07:17:35;;;;;;;17.42;5.68;;;;;;;;;;4914736;29;20033;-65
2021/06/30 07:20:02;;;;;;;15.25;4.18;;;;;;;;;;4913295;29;20389;-68
2021/06/30 07:22:28;;;;;;;13.95;4.10;;;;;;;;;;4914627;29;20035;-66
2021/06/30 07:24:54;;;;;;;14.18;4.20;;;;;;;;;;4914728;29;20032;-63
2021/06/30 07:27:20;;;;;;;12.75;3.80;;;;;;;;;;4914499;29;20028;-62
2021/06/30 07:29:46;;;;;;;19.98;4.65;;;;;;;;;;4913952;29;20493;-61
2021/06/30 07:32:12;;;;;;;13.45;4.20;;;;;;;;;;4914671;29;20068;-61
2021/06/30 07:34:38;;;;;;;17.83;4.82;;;;;;;;;;4914258;29;20027;-62
2021/06/30 07:37:04;;;;;;;14.95;5.30;;;;;;;;;;4913456;29;20028;-61
2021/06/30 07:39:30;;;;;;;14.77;4.38;;;;;;;;;;4914131;29;20380;-70
2021/06/30 07:41:57;;;;;;;13.82;3.40;;;;;;;;;;4914215;29;20024;-68
2021/06/30 07:44:23;;;;;;;13.45;3.65;;;;;;;;;;4914240;29;20032;-67
2021/06/30 07:46:49;;;;;;;12.10;3.63;;;;;;;;;;4914316;29;20108;-62
2021/06/30 07:49:15;;;;;;;13.48;4.10;;;;;;;;;;4912754;29;20040;-64
2021/06/30 07:51:41;;;;;;;15.15;3.47;;;;;;;;;;4916975;29;20055;-68
2021/06/30 07:54:08;;;;;;;15.02;3.70;;;;;;;;;;4917130;29;20032;-70
2021/06/30 07:56:34;;;;;;;12.50;4.00;;;;;;;;;;4918058;29;20032;-69
2021/06/30 07:59:07;;;;;;;20.08;3.88;;;;;;;;;;4916448;29;20084;-69
2021/06/30 08:01:34;;;;;;;13.02;3.60;;;;;;;;;;4917998;29;20041;-68
2021/06/30 08:04:00;;;;;;;13.52;3.97;;;;;;;;;;4917559;29;20484;-70
2021/06/30 08:06:27;;;;;;;15.48;4.55;;;;;;;;;;4917301;29;20032;-71
2021/06/30 08:08:53;;;;;;;14.85;4.80;;;;;;;;;;4917211;29;20043;-69
2021/06/30 08:11:23;;;;;;;13.07;3.92;;;;;;;;;;4917344;29;20381;-68
2021/06/30 08:13:49;;;;;;;11.38;3.70;;;;;;;;;;4917172;29;20051;-61
2021/06/30 08:16:15;;;;;;;14.75;3.95;;;;;;;;;;4917493;29;20088;-70
2021/06/30 08:18:41;;;;;;;15.57;4.30;;;;;;;;;;4917522;29;20028;-64
2021/06/30 08:21:07;;;;;;;15.00;3.80;;;;;;;;;;4917226;29;20067;-64
2021/06/30 08:23:33;;;;;;;19.73;5.15;;;;;;;;;;4917448;29;20028;-63
2021/06/30 08:25:59;;;;;;;19.75;4.22;;;;;;;;;;4917599;29;20031;-67
2021/06/30 08:28:27;;;;;;;13.13;3.80;;;;;;;;;;4917038;29;20092;-64
2021/06/30 08:30:53;;;;;;;15.88;4.90;;;;;;;;;;4916175;29;20036;-60
2021/06/30 08:33:19;;;;;;;16.40;4.20;;;;;;;;;;4917055;29;20492;-66
2021/06/30 08:35:45;;;;;;;11.38;3.72;;;;;;;;;;4917281;29;20027;-69
2021/06/30 08:38:11;;;;;;;18.10;4.97;;;;;;;;;;4917195;29;20110;-66
2021/06/30 08:40:38;;;;;;;14.35;4.05;;;;;;;;;;4916849;29;20028;-65
2021/06/30 08:43:05;;;;;;;14.15;3.53;;;;;;;;;;4916876;29;20024;-62
2021/06/30 08:45:31;;;;;;;14.68;3.75;;;;;;;;;;4917181;29;20036;-62
2021/06/30 08:47:58;;;;;;;14.90;3.97;;;;;;;;;;4916682;29;20543;-66
2021/06/30 08:50:25;;;;;;;13.18;3.95;;;;;;;;;;4916962;29;20061;-68
2021/06/30 08:52:51;;;;;;;15.60;3.72;;;;;;;;;;4915418;29;20039;-62
2021/06/30 08:55:18;;;;;;;16.73;4.20;;;;;;;;;;4916634;29;20033;-61
2021/06/30 08:57:45;;;;;;;11.60;3.83;;;;;;;;;;4916686;29;20036;-60
2021/06/30 09:00:12;;;;;;;18.85;4.15;;;;;;;;;;4916023;29;20060;-61
2021/06/30 09:02:40;;;;;;;19.02;3.97;;;;;;;;;;4925981;29;20518;-60
2021/06/30 09:05:24;;;;;;;16.90;4.28;;;;;;;;;;4924829;29;20100;-60
2021/06/30 09:07:53;;;;;;;14.40;4.25;;;;;;;;;;4925385;29;20066;-64
2021/06/30 09:10:32;;;;;;;14.60;4.13;;;;;;;;;;4925529;29;20411;-61
2021/06/30 09:12:59;;;;;;;20.15;4.85;;;;;;;;;;4919058;29;20031;-60
2021/06/30 09:15:33;;;;;;;18.15;6.40;;;;;;;;;;4924257;29;20119;-64
2021/06/30 09:18:22;;;;;;;19.65;6.40;;;;;;;;;;4928086;29;20043;-61
2021/06/30 09:20:48;;;;;;;17.30;6.10;;;;;;;;;;4935166;29;20051;-60
2021/06/30 09:23:14;;;;;;;18.65;5.55;;;;;;;;;;4934905;29;20028;-64
2021/06/30 09:25:41;;;;;;;19.30;5.13;;;;;;;;;;4935085;29;20051;-64
2021/06/30 09:28:16;;;;;;;18.33;5.07;;;;;;;;;;4934523;29;20040;-61
2021/06/30 09:30:55;;;;;;;15.07;4.85;;;;;;;;;;4934852;29;20051;-61
2021/06/30 09:33:21;;;;;;;14.57;5.05;;;;;;;;;;4934751;29;20028;-60
2021/06/30 09:35:48;;;;;;;15.32;5.35;;;;;;;;;;4934668;29;20024;-60
2021/06/30 09:38:30;;;;;;;21.33;4.95;;;;;;;;;;4926537;29;20106;-63
2021/06/30 09:40:57;;;;;;;17.77;5.53;;;;;;;;;;4934320;29;20035;-64
2021/06/30 09:43:31;;;;;;;15.98;5.30;;;;;;;;;;4934303;29;20127;-64
2021/06/30 09:45:59;;;;;;;15.30;4.70;;;;;;;;;;4934391;29;20404;-61
2021/06/30 09:48:29;;;;;;;20.25;5.50;;;;;;;;;;4933921;29;20039;-60
2021/06/30 09:50:56;;;;;;;20.77;5.80;;;;;;;;;;4928261;29;20105;-60
2021/06/30 09:53:32;;;;;;;18.40;5.47;;;;;;;;;;4934389;29;20475;-60
2021/06/30 09:56:10;;;;;;;18.60;5.78;;;;;;;;;;4924769;29;20134;-63
2021/06/30 09:58:36;;;;;;;21.08;6.63;;;;;;;;;;4910547;29;20035;-62
2021/06/30 10:01:21;;;;;;;15.50;5.57;;;;;;;;;;4917600;29;20056;-60
2021/06/30 10:03:47;;;;;;;19.13;6.28;;;;;;;;;;4916651;29;20039;-61
2021/06/30 10:06:31;;;;;;;14.70;5.60;;;;;;;;;;4914578;29;20075;-61
2021/06/30 10:08:58;;;;;;;19.83;5.78;;;;;;;;;;4919122;29;20770;-61
2021/06/30 10:11:25;;;;;;;15.98;5.32;;;;;;;;;;4914479;29;20032;-59
2021/06/30 10:13:51;;;;;;;21.10;6.10;;;;;;;;;;4913540;29;20388;-60
2021/06/30 10:16:19;;;;;;;20.20;6.45;;;;;;;;;;4927592;29;20035;-59
2021/06/30 10:18:48;;;;;;;14.95;6.10;;;;;;;;;;4917178;29;20103;-62
2021/06/30 10:21:15;;;;;;;18.70;6.50;;;;;;;;;;4914579;29;20159;-64
2021/06/30 10:23:42;;;;;;;18.02;6.65;;;;;;;;;;4914989;29;20095;-64
2021/06/30 10:26:08;;;;;;;19.48;5.47;;;;;;;;;;4914836;29;20054;-61
2021/06/30 10:28:34;;;;;;;17.65;6.15;;;;;;;;;;4914000;29;20369;-62
2021/06/30 10:31:00;;;;;;;19.90;5.93;;;;;;;;;;4914291;29;20028;-62
2021/06/30 10:33:31;;;;;;;19.73;6.30;;;;;;;;;;4927517;29;20039;-62
2021/06/30 10:35:57;;;;;;;22.67;7.30;;;;;;;;;;4933608;29;20027;-66
2021/06/30 10:38:23;;;;;;;21.42;6.20;;;;;;;;;;4933333;29;20038;-60
2021/06/30 10:40:49;;;;;;;13.93;6.50;;;;;;;;;;4932974;29;20024;-62
2021/06/30 10:43:15;;;;;;;16.90;6.30;;;;;;;;;;4933302;29;20039;-61
2021/06/30 10:45:42;;;;;;;17.33;6.10;;;;;;;;;;4933116;29;20488;-63
2021/06/30 10:48:10;;;;;;;19.52;5.65;;;;;;;;;;4933091;29;20504;-61
2021/06/30 10:50:43;;;;;;;19.30;6.47;;;;;;;;;;4895075;29;20517;-61
2021/06/30 10:53:11;;;;;;;20.85;5.47;;;;;;;;;;4895731;29;20056;-64
2021/06/30 10:55:39;;;;;;;15.10;5.32;;;;;;;;;;4895799;29;20036;-61
2021/06/30 10:58:14;;;;;;;18.95;6.03;;;;;;;;;;4895341;29;20033;-61
2021/06/30 11:00:42;;;;;;;18.75;5.53;;;;;;;;;;4895263;29;20056;-60
2021/06/30 11:03:23;;;;;;;16.27;4.90;;;;;;;;;;4895274;29;20497;-61
2021/06/30 11:05:50;;;;;;;17.98;6.07;;;;;;;;;;4899455;29;20035;-61
2021/06/30 11:08:34;;;;;;;17.80;5.45;;;;;;;;;;4913107;29;20111;-61
2021/06/30 11:11:00;;;;;;;19.50;6.47;;;;;;;;;;4929280;29;20031;-61
2021/06/30 11:13:45;;;;;;;21.35;5.80;;;;;;;;;;4933091;29;20106;-61
2021/06/30 11:16:11;;;;;;;20.95;5.57;;;;;;;;;;4932694;29;20039;-61
2021/06/30 11:18:41;;;;;;;22.13;5.35;;;;;;;;;;4932964;29;20759;-61
2021/06/30 11:21:08;;;;;;;17.13;5.05;;;;;;;;;;4932772;29;20045;-60
2021/06/30 11:23:39;;;;;;;22.65;5.13;;;;;;;;;;4925536;29;20031;-61
2021/06/30 11:26:24;;;;;;;14.20;4.50;;;;;;;;;;4917763;29;20038;-60
2021/06/30 11:28:50;;;;;;;21.10;5.30;;;;;;;;;;4917367;29;20448;-63
2021/06/30 11:31:28;;;;;;;22.45;5.53;;;;;;;;;;4917824;29;20024;-61
2021/06/30 11:34:08;;;;;;;19.13;4.68;;;;;;;;;;4917860;29;20103;-60
2021/06/30 11:36:38;;;;;;;17.00;4.63;;;;;;;;;;4918963;29;20035;-60
2021/06/30 11:39:08;;;;;;;18.48;4.70;;;;;;;;;;4918066;29;20032;-65
2021/06/30 11:41:47;;;;;;;18.00;4.57;;;;;;;;;;4917003;29;20115;-60
2021/06/30 11:44:14;;;;;;;24.88;4.80;;;;;;;;;;4917912;29;20024;-69
2021/06/30 11:46:43;;;;;;;16.73;4.10;;;;;;;;;;4917732;29;20131;-61
2021/06/30 11:49:17;;;;;;;17.15;4.50;;;;;;;;;;4917828;29;20039;-61
2021/06/30 11:51:43;;;;;;;24.35;4.53;;;;;;;;;;4917958;29;20103;-62
2021/06/30 11:54:16;;;;;;;21.23;4.97;;;;;;;;;;4917912;29;20032;-62
2021/06/30 11:56:43;;;;;;;23.95;4.57;;;;;;;;;;4918014;29;20040;-61
2021/06/30 11:59:16;;;;;;;18.83;4.63;;;;;;;;;;4917063;29;20028;-61
2021/06/30 12:01:42;;;;;;;20.63;4.55;;;;;;;;;;4917521;29;20060;-60
2021/06/30 12:04:11;;;;;;;20.58;4.25;;;;;;;;;;4917560;29;20032;-61
2021/06/30 12:06:38;;;;;;;26.52;4.38;;;;;;;;;;4917474;29;20030;-60
2021/06/30 12:09:05;;;;;;;21.15;4.50;;;;;;;;;;4917252;29;20028;-62
2021/06/30 12:11:32;;;;;;;16.55;3.88;;;;;;;;;;4916994;29;20032;-60
2021/06/30 12:14:05;;;;;;;19.63;4.50;;;;;;;;;;4925418;29;20063;-61
2021/06/30 12:16:42;;;;;;;21.75;4.40;;;;;;;;;;4935741;29;20032;-65
2021/06/30 12:19:12;;;;;;;19.60;4.35;;;;;;;;;;4898144;29;20040;-61
2021/06/30 12:21:39;;;;;;;18.55;4.28;;;;;;;;;;4912624;29;20388;-66
2021/06/30 12:24:12;;;;;;;17.48;4.40;;;;;;;;;;4898046;29;20120;-64
2021/06/30 12:26:54;;;;;;;22.85;4.28;;;;;;;;;;4912549;29;20041;-63
2021/06/30 12:29:20;;;;;;;;;;;;;;;;;;4898012;29;20059;-63
2021/06/30 12:31:46;;;;;;;25.15;5.13;;;;;;;;;;4912404;29;19911;-64
2021/06/30 12:34:12;;;;;;;18.08;4.25;;;;;;;;;;4897646;29;20024;-60
2021/06/30 12:36:38;;;;;;;24.13;4.88;;;;;;;;;;4897528;29;20443;-61
2021/06/30 12:39:21;;;;;;;26.40;5.65;;;;;;;;;;4897950;29;20033;-61
2021/06/30 12:42:06;;;;;;;18.80;4.07;;;;;;;;;;4897567;29;20693;-62
2021/06/30 12:44:51;;;;;;;19.55;4.75;;;;;;;;;;4897513;29;20377;-61
2021/06/30 12:47:17;;;;;;;24.73;4.45;;;;;;;;;;4897967;29;20036;-60
2021/06/30 12:49:55;;;;;;;24.02;5.22;;;;;;;;;;4897664;29;20115;-69
2021/06/30 12:52:22;;;;;;;20.88;5.07;;;;;;;;;;4897528;29;20020;-62
2021/06/30 12:55:06;;;;;;;17.52;5.20;;;;;;;;;;4897396;29;20088;-59
2021/06/30 12:57:32;;;;;;;17.02;4.50;;;;;;;;;;4897870;29;20434;-59
2021/06/30 13:00:10;;;;;;;17.65;4.35;;;;;;;;;;4896986;29;20044;-59
2021/06/30 13:02:36;;;;;;;26.63;4.43;;;;;;;;;;4897268;29;20036;-59
2021/06/30 13:05:20;;;;;;;16.33;4.03;;;;;;;;;;4897233;29;20393;-59
2021/06/30 13:07:46;;;;;;;22.40;5.30;;;;;;;;;;4897138;29;20036;-63
2021/06/30 13:10:16;;;;;;;21.52;6.28;;;;;;;;;;4897194;29;20039;-63
2021/06/30 13:12:43;;;;;;;16.65;5.35;;;;;;;;;;4897049;29;20048;-64
2021/06/30 13:15:25;;;;;;;22.70;4.30;;;;;;;;;;4896795;29;20477;-63
2021/06/30 13:17:52;;;;;;;19.38;4.18;;;;;;;;;;4897297;29;20029;-64
2021/06/30 13:20:18;;;;;;;21.77;5.43;;;;;;;;;;4897000;29;20176;-61
2021/06/30 13:22:45;;;;;;;14.23;4.65;;;;;;;;;;4896944;29;20033;-60
2021/06/30 13:25:31;;;;;;;24.38;5.07;;;;;;;;;;4897004;29;20039;-61
2021/06/30 13:28:13;;;;;;;24.98;5.47;;;;;;;;;;4897217;29;20131;-60
2021/06/30 13:36:56;;;;;;;18.95;4.30;;;;;;;;;;4893203;29;20080;-61
2021/06/30 13:39:22;;;;;;;19.20;4.22;;;;;;;;;;4894325;29;20092;-60
2021/06/30 13:41:48;;;;;;;25.63;5.47;;;;;;;;;;4894539;29;20438;-58
2021/06/30 13:44:22;;;;;;;18.50;4.68;;;;;;;;;;4894824;29;20083;-58
2021/06/30 13:46:48;;;;;;;16.60;4.20;;;;;;;;;;4893882;29;20063;-59
2021/06/30 13:49:14;;;;;;;21.60;5.32;;;;;;;;;;4893727;29;20084;-64
2021/06/30 13:51:40;;;;;;;15.27;4.35;;;;;;;;;;4894396;29;20036;-59
2021/06/30 13:54:06;;;;;;;19.50;4.40;;;;;;;;;;4893707;29;20132;-63
2021/06/30 13:56:33;;;;;;;23.60;5.07;;;;;;;;;;4893940;29;20075;-61
2021/06/30 13:58:59;;;;;;;16.45;4.28;;;;;;;;;;4893498;29;20504;-59
2021/06/30 14:01:25;;;;;;;22.85;4.40;;;;;;;;;;4885313;29;20437;-60
2021/06/30 14:03:51;;;;;;;25.10;5.07;;;;;;;;;;4882719;29;20071;-65
2021/06/30 14:06:19;;;;;;;21.90;5.13;;;;;;;;;;4884845;29;20037;-59
2021/06/30 14:08:46;;;;;;;21.30;5.15;;;;;;;;;;4884008;29;20064;-59
2021/06/30 14:11:12;;;;;;;20.63;4.63;;;;;;;;;;4917823;29;20039;-58
2021/06/30 14:13:39;;;;;;;26.98;5.88;;;;;;;;;;4934144;29;20035;-59
2021/06/30 14:16:06;;;;;;;19.50;5.07;;;;;;;;;;4934189;29;20055;-59
2021/06/30 14:18:32;;;;;;;25.88;6.93;;;;;;;;;;4934402;29;20506;-61
2021/06/30 14:20:58;;;;;;;21.35;5.45;;;;;;;;;;4934339;29;20083;-63
2021/06/30 14:23:26;;;;;;;28.55;4.72;;;;;;;;;;4934460;29;20058;-60
2021/06/30 14:25:53;;;;;;;37.25;12.80;;;;;;;;;;4933885;29;20031;-61
2021/06/30 14:28:19;;;;;;;19.00;4.38;;;;;;;;;;4933570;29;20040;-61
2021/06/30 14:30:51;;;;;;;23.20;4.95;;;;;;;;;;4933402;29;20028;-60
2021/06/30 14:33:18;;;;;;;49.22;14.40;;;;;;;;;;4930529;29;20092;-60
2021/06/30 14:35:44;;;;;;;30.48;7.65;;;;;;;;;;4914990;29;20032;-59
2021/06/30 14:38:10;;;;;;;26.27;6.50;;;;;;;;;;4915146;29;20028;-59
2021/06/30 14:40:36;;;;;;;34.20;7.72;;;;;;;;;;4914993;29;20064;-59
2021/06/30 14:43:02;;;;;;;34.00;10.23;;;;;;;;;;4914575;29;20024;-60
2021/06/30 14:45:28;;;;;;;42.72;12.98;;;;;;;;;;4932559;29;20036;-59
2021/06/30 14:47:59;;;;;;;30.10;8.18;;;;;;;;;;4933852;29;20039;-59
2021/06/30 14:50:26;;;;;;;24.35;5.68;;;;;;;;;;4926908;29;20021;-62
2021/06/30 14:52:52;;;;;;;43.90;13.40;;;;;;;;;;4914245;29;20096;-59
2021/06/30 14:55:18;;;;;;;35.58;11.27;;;;;;;;;;4921986;29;20387;-62
2021/06/30 14:57:45;;;;;;;42.22;15.23;;;;;;;;;;4914936;29;20044;-60
2021/06/30 15:00:13;;;;;;;28.38;7.60;;;;;;;;;;4913065;29;20035;-58
2021/06/30 15:02:39;;;;;;;61.50;24.50;;;;;;;;;;4911306;29;20036;-59
2021/06/30 15:05:06;;;;;;;32.05;9.90;;;;;;;;;;4913781;29;20084;-59
2021/06/30 15:07:32;;;;;;;25.42;6.25;;;;;;;;;;4914204;29;20060;-59
2021/06/30 15:09:58;;;;;;;77.53;27.48;;;;;;;;;;4906218;29;20063;-61
2021/06/30 15:12:25;;;;;;;28.77;8.23;;;;;;;;;;4927307;29;20028;-59
2021/06/30 15:14:51;;;;;;;28.15;7.32;;;;;;;;;;4919479;29;20091;-59
2021/06/30 15:17:17;;;;;;;37.20;10.80;;;;;;;;;;4913654;29;20448;-59
2021/06/30 15:19:43;;;;;;;24.27;5.75;;;;;;;;;;4914210;29;20425;-63
2021/06/30 15:22:09;;;;;;;61.88;22.88;;;;;;;;;;4914087;29;20016;-58
2021/06/30 15:24:35;;;;;;;25.30;5.20;;;;;;;;;;4922040;29;20511;-59
2021/06/30 15:27:01;;;;;;;25.73;5.60;;;;;;;;;;4914302;29;20107;-63
2021/06/30 15:29:27;;;;;;;32.80;9.50;;;;;;;;;;4914315;29;20055;-59
2021/06/30 15:31:54;;;;;;;21.92;4.60;;;;;;;;;;4897150;29;20444;-59
2021/06/30 15:34:20;;;;;;;18.85;4.78;;;;;;;;;;4913258;29;20052;-59
2021/06/30 15:36:49;;;;;;;23.45;5.20;;;;;;;;;;4914244;29;20062;-61
2021/06/30 15:39:16;;;;;;;19.42;3.85;;;;;;;;;;4913784;29;20028;-58
2021/06/30 15:41:45;;;;;;;20.58;4.60;;;;;;;;;;4913624;29;20032;-62
2021/06/30 15:44:11;;;;;;;28.48;5.75;;;;;;;;;;4928888;29;20511;-58
2021/06/30 15:46:37;;;;;;;28.38;4.93;;;;;;;;;;4927606;29;20483;-58
2021/06/30 15:49:04;;;;;;;23.27;4.57;;;;;;;;;;4932648;29;20036;-60
2021/06/30 15:51:30;;;;;;;22.25;4.63;;;;;;;;;;4932840;29;20036;-58
2021/06/30 15:53:56;;;;;;;17.17;4.60;;;;;;;;;;4928118;29;20046;-58
2021/06/30 15:56:36;;;;;;;21.60;5.78;;;;;;;;;;4932674;29;20032;-59
2021/06/30 15:59:03;;;;;;;17.67;4.47;;;;;;;;;;4932717;29;20107;-58
2021/06/30 16:01:29;;;;;;;23.15;5.93;;;;;;;;;;4931035;29;20434;-58
2021/06/30 16:03:55;;;;;;;16.30;4.75;;;;;;;;;;4932616;29;20384;-58
2021/06/30 16:06:21;;;;;;;23.83;5.45;;;;;;;;;;4932749;29;20031;-58
2021/06/30 16:08:47;;;;;;;19.20;4.38;;;;;;;;;;4932366;29;20114;-58
2021/06/30 16:11:13;;;;;;;22.00;4.82;;;;;;;;;;4933034;29;20028;-58
2021/06/30 16:13:39;;;;;;;22.20;4.28;;;;;;;;;;4936119;29;20083;-59
2021/06/30 16:16:06;;;;;;;20.02;5.90;;;;;;;;;;4935376;29;20543;-59
2021/06/30 16:18:32;;;;;;;22.70;4.78;;;;;;;;;;4935735;29;20039;-59
2021/06/30 16:20:58;;;;;;;22.95;4.47;;;;;;;;;;4935928;29;20102;-58
2021/06/30 16:23:24;;;;;;;19.55;4.95;;;;;;;;;;4936108;29;20028;-60
2021/06/30 16:25:52;;;;;;;17.40;4.40;;;;;;;;;;4935993;29;20490;-59
2021/06/30 16:28:18;;;;;;;17.45;5.03;;;;;;;;;;4935356;29;20044;-58
2021/06/30 16:30:44;;;;;;;18.15;5.00;;;;;;;;;;4935863;29;20032;-60
2021/06/30 16:33:13;;;;;;;15.48;3.97;;;;;;;;;;4935478;29;20031;-62
2021/06/30 16:35:40;;;;;;;23.27;4.30;;;;;;;;;;4934233;29;20034;-63
2021/06/30 16:38:06;;;;;;;18.75;4.63;;;;;;;;;;4915674;29;20028;-60
2021/06/30 16:40:32;;;;;;;18.48;3.97;;;;;;;;;;4916297;29;20052;-59
2021/06/30 16:42:58;;;;;;;21.38;4.18;;;;;;;;;;4931235;29;20027;-58
2021/06/30 16:45:24;;;;;;;25.20;5.20;;;;;;;;;;4929378;29;20075;-58
2021/06/30 16:47:51;;;;;;;19.60;5.72;;;;;;;;;;4915405;29;20490;-58
2021/06/30 16:50:17;;;;;;;25.42;5.70;;;;;;;;;;4916457;29;20039;-58
2021/06/30 16:52:43;;;;;;;20.67;4.70;;;;;;;;;;4923948;29;20591;-59
2021/06/30 16:55:09;;;;;;;22.48;4.47;;;;;;;;;;4933725;29;20036;-58
2021/06/30 16:57:35;;;;;;;21.42;4.13;;;;;;;;;;4915738;29;20028;-57
2021/06/30 17:00:05;;;;;;;16.70;4.05;;;;;;;;;;4915865;29;20020;-58
2021/06/30 17:02:31;;;;;;;22.55;4.60;;;;;;;;;;4923915;29;20035;-58
2021/06/30 17:04:57;;;;;;;21.13;4.80;;;;;;;;;;4898237;29;21104;-57
2021/06/30 17:07:23;;;;;;;19.27;5.53;;;;;;;;;;4915546;29;20028;-59
2021/06/30 17:09:49;;;;;;;20.90;4.97;;;;;;;;;;4934085;29;20481;-57
2021/06/30 17:12:16;;;;;;;18.85;5.15;;;;;;;;;;4933549;29;20032;-58
2021/06/30 17:14:43;;;;;;;23.15;5.60;;;;;;;;;;4934741;29;20392;-57
2021/06/30 17:17:09;;;;;;;23.08;7.03;;;;;;;;;;4928096;29;20114;-59
2021/06/30 17:19:35;;;;;;;24.65;5.30;;;;;;;;;;4921987;29;20130;-60
2021/06/30 17:22:02;;;;;;;22.35;5.07;;;;;;;;;;4923319;29;20032;-58
2021/06/30 17:24:29;;;;;;;23.35;5.43;;;;;;;;;;4925671;29;20020;-59
2021/06/30 17:26:55;;;;;;;25.13;6.28;;;;;;;;;;4901213;29;20136;-59
2021/06/30 17:29:21;;;;;;;22.95;5.35;;;;;;;;;;4915910;29;20032;-60
2021/06/30 17:31:47;;;;;;;19.73;6.75;;;;;;;;;;4916255;29;20083;-58
2021/06/30 17:34:13;;;;;;;20.70;7.55;;;;;;;;;;4915491;29;20522;-61
2021/06/30 17:36:58;;;;;;;25.13;6.43;;;;;;;;;;4916339;29;20055;-62
2021/06/30 17:39:36;;;;;;;18.65;5.78;;;;;;;;;;4915823;29;20425;-62
2021/06/30 17:42:03;;;;;;;28.48;6.95;;;;;;;;;;4915539;29;20824;-59
2021/06/30 17:44:29;;;;;;;21.45;5.35;;;;;;;;;;4915798;29;20072;-61
2021/06/30 17:46:56;;;;;;;19.88;5.72;;;;;;;;;;4914631;29;20047;-61
2021/06/30 17:49:22;;;;;;;28.10;6.72;;;;;;;;;;4914677;29;20113;-62
2021/06/30 17:51:49;;;;;;;22.83;4.78;;;;;;;;;;4914861;29;20042;-64
2021/06/30 17:54:16;;;;;;;29.85;5.82;;;;;;;;;;4925083;29;20484;-62
2021/06/30 17:56:56;;;;;;;28.55;6.03;;;;;;;;;;4924845;29;20463;-62
2021/06/30 17:59:23;;;;;;;22.95;6.15;;;;;;;;;;4914157;29;20024;-61
2021/06/30 18:01:52;;;;;;;26.98;7.88;;;;;;;;;;4910948;29;20591;-62
2021/06/30 18:04:18;;;;;;;26.27;8.55;;;;;;;;;;4910411;29;20028;-63
2021/06/30 18:06:44;;;;;;;22.05;8.15;;;;;;;;;;4907840;29;20500;-59
2021/06/30 18:09:10;;;;;;;21.30;8.30;;;;;;;;;;4905104;29;20067;-60
2021/06/30 18:11:36;;;;;;;24.85;6.85;;;;;;;;;;4911837;29;20564;-65
2021/06/30 18:14:03;;;;;;;29.13;6.72;;;;;;;;;;4913650;29;20433;-60
2021/06/30 18:16:29;;;;;;;21.38;6.00;;;;;;;;;;4914836;29;20028;-60
2021/06/30 18:18:55;;;;;;;29.20;8.18;;;;;;;;;;4914762;29;20039;-64
2021/06/30 18:21:21;;;;;;;19.40;5.72;;;;;;;;;;4914695;29;20385;-61
2021/06/30 18:23:47;;;;;;;23.00;6.38;;;;;;;;;;4914393;29;20103;-60
2021/06/30 18:26:13;;;;;;;27.75;7.47;;;;;;;;;;4914435;29;20028;-64
2021/06/30 18:28:40;;;;;;;26.88;7.70;;;;;;;;;;4914117;29;20146;-63
2021/06/30 18:31:06;;;;;;;25.55;7.97;;;;;;;;;;4913165;29;20024;-62
2021/06/30 18:33:33;;;;;;;27.35;7.28;;;;;;;;;;4923584;29;20476;-60
2021/06/30 18:36:02;;;;;;;26.08;6.57;;;;;;;;;;4914751;29;20467;-64
2021/06/30 18:38:28;;;;;;;27.27;6.82;;;;;;;;;;4914504;29;20035;-59
2021/06/30 18:40:54;;;;;;;27.08;6.32;;;;;;;;;;4914456;29;20389;-61
2021/06/30 18:43:20;;;;;;;26.25;6.78;;;;;;;;;;4914868;29;20071;-61
2021/06/30 18:45:46;;;;;;;27.20;7.00;;;;;;;;;;4914445;29;20437;-63
2021/06/30 18:48:12;;;;;;;22.42;6.00;;;;;;;;;;4914417;29;20035;-66
2021/06/30 18:50:40;;;;;;;25.50;6.68;;;;;;;;;;4914679;29;20035;-60
2021/06/30 18:53:06;;;;;;;21.65;7.80;;;;;;;;;;4921694;29;20029;-64
2021/06/30 18:55:32;;;;;;;23.52;5.43;;;;;;;;;;4914222;29;20404;-66
2021/06/30 18:58:00;;;;;;;24.80;5.70;;;;;;;;;;4919602;29;20106;-65
2021/06/30 19:00:28;;;;;;;24.55;6.32;;;;;;;;;;4913920;29;20082;-59
2021/06/30 19:02:54;;;;;;;34.78;7.72;;;;;;;;;;4916541;29;20106;-59
2021/06/30 19:05:20;;;;;;;27.80;7.47;;;;;;;;;;4922552;29;20032;-62
2021/06/30 19:07:46;;;;;;;22.30;6.35;;;;;;;;;;4918606;29;20087;-59
2021/06/30 19:10:16;;;;;;;23.20;5.80;;;;;;;;;;4916166;29;20047;-60
2021/06/30 19:12:42;;;;;;;26.27;6.35;;;;;;;;;;4902182;29;20032;-59
2021/06/30 19:15:10;;;;;;;21.58;5.78;;;;;;;;;;4919779;29;20058;-57
2021/06/30 19:17:36;;;;;;;21.73;5.60;;;;;;;;;;4922987;29;20028;-67
2021/06/30 19:20:04;;;;;;;23.17;5.85;;;;;;;;;;4922354;29;20106;-62
2021/06/30 19:22:32;;;;;;;20.50;5.40;;;;;;;;;;4913344;29;20115;-69
2021/06/30 19:24:58;;;;;;;23.50;5.70;;;;;;;;;;4914064;29;20030;-60
2021/06/30 19:27:24;;;;;;;30.80;6.45;;;;;;;;;;4914176;29;20076;-62
2021/06/30 19:29:52;;;;;;;21.63;5.22;;;;;;;;;;4914343;29;20036;-64
2021/06/30 19:32:18;;;;;;;24.08;6.10;;;;;;;;;;4897595;29;20036;-64
2021/06/30 19:34:44;;;;;;;24.38;5.80;;;;;;;;;;4914673;29;20052;-81
2021/06/30 19:37:11;;;;;;;16.98;5.30;;;;;;;;;;4909357;29;20024;-66
2021/06/30 19:39:37;;;;;;;24.45;5.78;;;;;;;;;;4927076;29;20047;-62
2021/06/30 19:42:07;;;;;;;22.98;5.47;;;;;;;;;;4933039;29;20087;-66
2021/06/30 19:44:34;;;;;;;27.35;5.90;;;;;;;;;;4932894;29;20020;-63
2021/06/30 19:47:00;;;;;;;16.92;5.82;;;;;;;;;;4934379;29;20031;-62
2021/06/30 19:49:27;;;;;;;21.33;5.93;;;;;;;;;;4936250;29;20504;-71
2021/06/30 19:51:58;;;;;;;22.40;6.53;;;;;;;;;;4935894;29;20024;-63
2021/06/30 19:54:25;;;;;;;29.35;6.50;;;;;;;;;;4935286;29;20032;-73
2021/06/30 19:56:51;;;;;;;22.13;6.22;;;;;;;;;;4936114;29;20028;-73
2021/06/30 19:59:17;;;;;;;17.65;6.35;;;;;;;;;;4936495;29;20032;-86
2021/06/30 20:01:43;;;;;;;24.95;6.20;;;;;;;;;;4936456;29;20156;-64
2021/06/30 20:04:09;;;;;;;23.25;6.45;;;;;;;;;;4936573;29;20043;-61
2021/06/30 20:06:35;;;;;;;19.25;6.20;;;;;;;;;;4935880;29;20031;-77
2021/06/30 20:09:02;;;;;;;19.73;7.20;;;;;;;;;;4936266;29;20047;-77
2021/06/30 20:11:28;;;;;;;22.75;6.82;;;;;;;;;;4911390;29;20031;-76
2021/06/30 20:13:54;;;;;;;27.75;7.40;;;;;;;;;;4900957;29;20035;-78
2021/06/30 20:16:21;;;;;;;24.17;7.00;;;;;;;;;;4928843;29;20095;-85
2021/06/30 20:18:47;;;;;;;27.75;8.38;;;;;;;;;;4927102;29;20032;-62
2021/06/30 20:21:13;;;;;;;25.73;8.18;;;;;;;;;;4915626;29;20103;-72
2021/06/30 20:23:39;;;;;;;18.42;7.95;;;;;;;;;;4916030;29;20420;-69
2021/06/30 20:26:05;;;;;;;26.10;8.43;;;;;;;;;;4916951;29;20020;-77
2021/06/30 20:28:32;;;;;;;23.25;7.78;;;;;;;;;;4916797;29;20043;-64
2021/06/30 20:30:58;;;;;;;25.25;8.70;;;;;;;;;;4916566;29;20036;-69
2021/06/30 20:33:24;;;;;;;24.25;8.15;;;;;;;;;;4915991;29;20096;-69
2021/06/30 20:35:50;;;;;;;24.42;7.60;;;;;;;;;;4915822;29;20024;-62
2021/06/30 20:38:16;;;;;;;24.67;7.38;;;;;;;;;;4916218;29;20028;-78
2021/06/30 20:40:42;;;;;;;21.77;7.75;;;;;;;;;;4899387;29;20059;-71